Topock, AZ (86436)

6:23 PM MST on March 04, 2015 (GMT -0700)
Az Route 66, Mile 6 | Change Station
CLOSE
Current Station
Personal Weather Station
Location: Mohave Valley, AZ
Elevation: 679 ft
Nearby Weather Stations

Elev 679 ft 34.79 °N, 114.48 °W | Updated 8 seconds ago

Clear
Clear
62.2 °F
Feels Like 62.2 °F
N
14.5
Wind Variable Wind from West
Gusts 17.4 mph

Today
High -- | Low -- °F
--% Chance of Precip.
Yesterday
High -- | Low -- °F
Precip. -- in
7:03 AM 6:36 PM
Full, 100% visible
Pressure 30.12 in
Visibility 10.0 miles
Clouds Clear
Dew Point 29 °F
Humidity 28%
Rainfall 0.00 in
Snow Depth Not available.
UV 0 out of 12
Pollen 8.80 out of 12
Air Quality Not available.
Flu Activity Not available.
METAR KIFP 050115Z AUTO 35019G25KT 10SM CLR 17/M03 A3012 RMK AO2 PWINO

More Conditions Fewer Conditions

Pressure 30.12 in
Visibility 10.0 miles
Clouds Clear
Dew Point 29 °F
Humidity 28%
Rainfall 0.00 in
Snow Depth Not available.
UV 0 out of 12
Pollen 8.80 out of 12
Air Quality Not available.
Flu Activity Not available.
METAR KIFP 050115Z AUTO 35019G25KT 10SM CLR 17/M03 A3012 RMK AO2 PWINO

More Conditions Fewer Conditions

10-Day Weather Forecast

Almanac

Astronomy

Mar. 04, 2015 Rise Set
Actual Time
Civil Twilight
Nautical Twilight
Astronomical Twilight
Moon
Length of Visible Light
Length of Day
Tomorrow will be .
, % of the Moon is Illuminated

Today's Extremes

State Highs State Lows

Community

WunderPhotos

Upload Photos

1,802,617 photos uploaded!

WunderBlogs® & News

Nearby

Air Quality

  Air Quality AQ Index Pollutant
Not available.

Snow Depth

Station Depth Elevation

Earthquake Activity

City Distance Mag. Time & Date
Minimum magnitude displayed is 2.5.

Coastal Water Temperatures

Place Temperature

Nearby Weather Stations